X  Schlie├čen METAR Luftfahrt Wetterdaten     EHKD De Kooy Airport
Temperatur
18°C Temperatur
14°C Taupunkt
78% Feuchtigkeit



Wind
14 MPS
23 KM/S
6 M/S
12 KTS



250°
WSW
Aktuelle Wetterlage

Meistens vereinzelte Wolken Meistens vereinzelte Wolken
Luftdruck 1012.87 (hPa) - 29.91 (inHg)
Sichtweite 6 (Meile) - 9.7 (Km)
Flughafen
Flughafen Code EHKD

Position : De Kooy Airport
Entfernung: 34 (mi)

Metar:
EHKD 221525Z AUTO 25012KT 220V280 9999 SCT012 18/14 Q1013 GRN TEMPO SCT013

Zeit: 22-06-2024 17:25 CEST